Time;durP1;ratioP1;P1;durP2;ratioP2;P2;SDS_P1;SDS_P2;PMS_P1;PMS_P2;Temp;Humidity;BMP_temperature;BMP_pressure;BME280_temperature;BME280_humidity;BME280_pressure;Samples;Min_cycle;Max_cycle;Signal;HPM_P1;HPM_P2
2021/12/13 00:02:05;;;;;;;;;;;;;;;8.03;42.10;100100.03;4466738;32;33477;-75
2021/12/13 00:04:35;;;;;;;;;;;;;;;7.80;39.99;100110.22;4470179;32;33907;-74
2021/12/13 00:07:05;;;;;;;;;;;;;;;8.42;39.52;100102.19;4459132;32;34206;-72
2021/12/13 00:09:33;;;;;;;;;;;;;;;8.75;38.88;100103.72;4469716;32;34202;-73
2021/12/13 00:12:03;;;;;;;;;;;;;;;8.77;38.10;100101.84;4467097;32;33694;-73
2021/12/13 00:14:35;;;;;;;;;;;;;;;8.72;38.48;100095.91;4467234;32;34966;-73
2021/12/13 00:17:03;;;;;;;;;;;;;;;8.58;38.88;100091.44;4457805;32;33563;-73
2021/12/13 00:19:32;;;;;;;;;;;;;;;8.58;38.82;100094.97;4465073;32;34560;-76
2021/12/13 00:22:02;;;;;;;;;;;;;;;8.89;38.15;100101.06;4458246;32;31882;-72
2021/12/13 00:24:31;;;;;;;;;;;;;;;8.40;38.92;100099.59;4476155;32;33983;-73
2021/12/13 00:27:07;;;;;;;;;;;;;;;7.79;40.38;100094.31;4467213;32;34144;-74
2021/12/13 00:29:44;;;;;;;;;;;;;;;8.46;38.78;100092.16;4468042;32;34052;-74
2021/12/13 00:32:19;;;;;;;;;;;;;;;8.30;39.43;100087.72;4471459;32;34596;-74
2021/12/13 00:34:48;;;;;;;;;;;;;;;8.09;40.54;100089.88;4473084;32;34049;-73
2021/12/13 00:37:17;;;;;;;;;;;;;;;8.10;39.26;100096.91;4470688;32;34439;-74
2021/12/13 00:39:50;;;;;;;;;;;;;;;8.25;39.03;100096.94;4470183;32;34181;-74
2021/12/13 00:42:18;;;;;;;;;;;;;;;8.13;39.76;100104.72;4458710;32;32278;-75
2021/12/13 00:44:49;;;;;;;;;;;;;;;8.08;39.59;100093.47;4472195;32;33989;-74
2021/12/13 00:47:19;;;;;;;;;;;;;;;7.87;40.97;100103.59;4458628;32;34096;-74
2021/12/13 00:49:48;;;;;;;;;;;;;;;7.85;39.77;100094.81;4472174;32;34373;-74
2021/12/13 00:52:16;;;;;;;;;;;;;;;7.88;42.43;100102.63;4457177;32;34475;-73
2021/12/13 00:54:44;;;;;;;;;;;;;;;7.00;41.71;100113.81;4471564;32;34610;-74
2021/12/13 00:57:24;;;;;;;;;;;;;;;7.56;41.51;100117.78;4457204;32;34249;-73
2021/12/13 00:59:54;;;;;;;;;;;;;;;7.85;39.75;100118.81;4469095;32;34189;-77
2021/12/13 01:02:22;;;;;;;;;;;;;;;7.18;42.96;100131.44;4467306;32;34406;-73
2021/12/13 01:04:52;;;;;;;;;;;;;;;7.42;41.73;100126.56;4474701;32;35139;-73
2021/12/13 01:07:32;;;;;;;;;;;;;;;7.53;42.58;100117.12;4470204;32;34468;-74
2021/12/13 01:10:18;;;;;;;;;;;;;;;7.23;42.01;100120.53;4468801;32;34436;-77
2021/12/13 01:12:47;;;;;;;;;;;;;;;7.65;42.11;100122.59;4470000;32;33449;-79
2021/12/13 01:15:19;;;;;;;;;;;;;;;7.91;41.37;100113.12;4456786;32;34697;-76
2021/12/13 01:20:41;;;;;;;;;;;;;;;7.62;41.13;100109.47;4458490;32;34896;-78
2021/12/13 01:23:14;;;;;;;;;;;;;;;7.84;42.62;100114.44;4457074;32;34402;-78
2021/12/13 01:26:03;;;;;;;;;;;;;;;7.43;42.43;100106.13;4455918;32;33852;-76
2021/12/13 01:28:33;;;;;;;;;;;;;;;7.43;44.03;100114.97;4454025;32;34489;-78
2021/12/13 01:31:14;;;;;;;;;;;;;;;7.64;40.21;100109.34;4453919;32;34289;-71
2021/12/13 01:33:44;;;;;;;;;;;;;;;7.73;39.89;100115.97;4466569;32;33564;-71
2021/12/13 01:36:13;;;;;;;;;;;;;;;7.44;43.42;100118.47;4474154;32;33873;-71
2021/12/13 01:38:50;;;;;;;;;;;;;;;7.53;40.56;100125.09;4475365;32;34333;-72
2021/12/13 01:41:20;;;;;;;;;;;;;;;7.39;41.98;100121.41;4457834;32;35334;-70
2021/12/13 01:43:49;;;;;;;;;;;;;;;7.17;42.98;100115.56;4447563;32;33564;-70
2021/12/13 01:46:17;;;;;;;;;;;;;;;7.62;40.86;100116.59;4468652;32;32648;-73
2021/12/13 01:48:45;;;;;;;;;;;;;;;7.77;40.60;100126.41;4473459;32;34201;-72
2021/12/13 01:51:15;;;;;;;;;;;;;;;7.83;40.19;100120.72;4467127;32;34219;-73
2021/12/13 01:54:00;;;;;;;;;;;;;;;8.26;38.50;100115.53;4465087;32;32138;-71
2021/12/13 01:56:52;;;;;;;;;;;;;;;8.05;40.28;100117.63;4463297;32;34141;-72
2021/12/13 01:59:41;;;;;;;;;;;;;;;7.97;41.00;100124.38;4466353;32;34421;-72
2021/12/13 02:02:18;;;;;;;;;;;;;;;7.63;41.33;100120.97;4470621;32;34362;-73
2021/12/13 02:04:54;;;;;;;;;;;;;;;7.60;40.97;100123.81;4470642;32;33623;-74
2021/12/13 02:07:23;;;;;;;;;;;;;;;7.92;39.52;100129.97;4472355;32;35045;-73
2021/12/13 02:09:50;;;;;;;;;;;;;;;7.89;39.04;100130.12;4464080;32;33899;-75
2021/12/13 02:12:19;;;;;;;;;;;;;;;7.50;41.33;100126.13;4469946;32;34091;-72
2021/12/13 02:16:56;;;;;;;;;;;;;;;7.63;40.52;100118.31;4468038;32;33549;-74
2021/12/13 02:17:41;;;;;;;;;;;;;;;7.62;42.29;100122.78;4470644;32;33139;-74
2021/12/13 02:20:20;;;;;;;;;;;;;;;7.22;41.44;100138.31;4474001;32;33184;-81
2021/12/13 02:22:49;;;;;;;;;;;;;;;8.03;39.29;100138.22;4458652;32;33989;-73
2021/12/13 02:25:34;;;;;;;;;;;;;;;8.13;39.42;100136.72;4474662;32;33619;-76
2021/12/13 02:28:02;;;;;;;;;;;;;;;7.81;41.41;100140.41;4453188;32;34311;-75
2021/12/13 02:30:29;;;;;;;;;;;;;;;8.33;39.96;100132.88;4466459;32;34210;-72
2021/12/13 02:32:56;;;;;;;;;;;;;;;8.70;38.11;100129.84;4469034;32;34418;-76
2021/12/13 02:35:27;;;;;;;;;;;;;;;8.92;37.11;100138.25;4469613;32;33012;-74
2021/12/13 02:37:54;;;;;;;;;;;;;;;9.25;36.60;100134.44;4471485;32;34247;-74
2021/12/13 02:40:22;;;;;;;;;;;;;;;8.97;37.44;100136.16;4463060;32;34286;-73
2021/12/13 02:42:50;;;;;;;;;;;;;;;8.97;37.55;100136.16;4452579;32;34170;-74
2021/12/13 02:45:19;;;;;;;;;;;;;;;8.90;37.65;100142.84;4472892;32;34040;-72
2021/12/13 02:47:52;;;;;;;;;;;;;;;8.31;39.69;100142.78;4471014;32;34309;-75
2021/12/13 02:50:23;;;;;;;;;;;;;;;8.66;39.01;100147.00;4471729;32;32980;-73
2021/12/13 02:52:50;;;;;;;;;;;;;;;9.10;38.16;100150.47;4468968;32;33396;-73
2021/12/13 02:55:20;;;;;;;;;;;;;;;8.67;38.04;100143.38;4474077;32;34638;-74
2021/12/13 02:57:50;;;;;;;;;;;;;;;9.24;36.31;100138.06;4473020;32;33979;-73
2021/12/13 03:00:43;;;;;;;;;;;;;;;8.72;37.10;100133.28;4474916;32;33910;-73
2021/12/13 03:03:12;;;;;;;;;;;;;;;8.74;38.13;100139.41;4467316;32;34409;-71
2021/12/13 03:05:41;;;;;;;;;;;;;;;8.90;37.54;100139.31;4467503;32;33651;-71
2021/12/13 03:08:11;;;;;;;;;;;;;;;9.10;36.88;100137.09;4466910;32;34215;-72
2021/12/13 03:10:39;;;;;;;;;;;;;;;8.93;36.69;100136.47;4466248;32;34221;-72
2021/12/13 03:13:07;;;;;;;;;;;;;;;9.34;36.52;100128.50;4467207;32;34385;-75
2021/12/13 03:15:34;;;;;;;;;;;;;;;9.29;36.55;100133.28;4474443;32;34621;-78
2021/12/13 03:18:04;;;;;;;;;;;;;;;9.61;35.73;100130.38;4471170;32;34037;-75
2021/12/13 03:20:51;;;;;;;;;;;;;;;9.86;35.43;100118.94;4472904;32;34160;-73
2021/12/13 03:23:37;;;;;;;;;;;;;;;9.88;35.76;100125.88;4470947;32;34405;-75
2021/12/13 03:26:15;;;;;;;;;;;;;;;9.86;35.99;100124.31;4475386;32;33531;-74
2021/12/13 03:29:01;;;;;;;;;;;;;;;9.96;35.33;100125.41;4456565;32;33733;-74
2021/12/13 03:31:31;;;;;;;;;;;;;;;10.02;34.64;100123.19;4470781;32;34301;-75
2021/12/13 03:34:01;;;;;;;;;;;;;;;9.85;35.58;100120.75;4472458;32;35148;-74
2021/12/13 03:36:34;;;;;;;;;;;;;;;9.52;36.24;100129.16;4472791;32;34586;-78
2021/12/13 03:39:02;;;;;;;;;;;;;;;10.00;34.52;100119.72;4475100;32;35003;-79
2021/12/13 03:41:30;;;;;;;;;;;;;;;9.72;36.00;100117.16;4467002;32;34411;-74
2021/12/13 03:44:03;;;;;;;;;;;;;;;9.67;36.57;100127.31;4455348;32;34495;-75
2021/12/13 03:46:31;;;;;;;;;;;;;;;9.25;36.78;100137.97;4452968;32;33488;-75
2021/12/13 03:48:59;;;;;;;;;;;;;;;9.55;35.97;100137.81;4466228;32;33758;-78
2021/12/13 03:51:29;;;;;;;;;;;;;;;9.59;36.48;100138.47;4465768;32;35378;-76
2021/12/13 03:53:57;;;;;;;;;;;;;;;9.62;36.77;100137.44;4477185;32;34720;-74
2021/12/13 03:56:28;;;;;;;;;;;;;;;9.25;37.25;100139.78;4473829;32;33300;-76
2021/12/13 03:58:57;;;;;;;;;;;;;;;9.96;35.55;100144.12;4472885;32;34169;-74
2021/12/13 04:01:26;;;;;;;;;;;;;;;9.97;35.90;100143.16;4477313;32;33140;-73
2021/12/13 04:03:56;;;;;;;;;;;;;;;10.24;35.49;100145.78;4471718;32;34375;-75
2021/12/13 04:06:23;;;;;;;;;;;;;;;9.85;35.63;100144.81;4472457;32;33377;-75
2021/12/13 04:08:52;;;;;;;;;;;;;;;10.23;35.63;100146.75;4468038;32;33871;-75
2021/12/13 04:11:21;;;;;;;;;;;;;;;9.91;35.00;100141.72;4476451;32;34380;-74
2021/12/13 04:13:51;;;;;;;;;;;;;;;9.65;36.06;100146.09;4458020;32;34627;-75
2021/12/13 04:16:29;;;;;;;;;;;;;;;10.25;34.56;100153.72;4470188;32;33624;-76
2021/12/13 04:21:34;;;;;;;;;;;;;;;9.98;35.49;100153.75;4473443;32;34254;-77
2021/12/13 04:24:05;;;;;;;;;;;;;;;10.07;35.51;100157.62;4470172;32;34550;-74
2021/12/13 04:26:36;;;;;;;;;;;;;;;10.39;34.80;100158.19;4469410;32;31727;-75
2021/12/13 04:29:03;;;;;;;;;;;;;;;10.54;34.37;100158.13;4470548;32;33984;-74
2021/12/13 04:31:32;;;;;;;;;;;;;;;10.64;34.04;100157.38;4467791;32;33204;-74
2021/12/13 04:34:01;;;;;;;;;;;;;;;10.59;34.08;100155.97;4473611;32;33275;-74
2021/12/13 04:36:33;;;;;;;;;;;;;;;10.42;34.32;100154.44;4473812;32;34447;-75
2021/12/13 04:39:05;;;;;;;;;;;;;;;9.66;36.12;100155.84;4472343;32;34188;-75
2021/12/13 04:41:38;;;;;;;;;;;;;;;9.99;35.98;100158.13;4471850;32;34389;-74
2021/12/13 04:44:10;;;;;;;;;;;;;;;10.05;35.53;100146.19;4474487;32;35236;-75
2021/12/13 04:46:39;;;;;;;;;;;;;;;9.93;36.08;100147.00;4473392;32;32622;-75
2021/12/13 04:49:08;;;;;;;;;;;;;;;9.81;36.02;100148.66;4472213;32;34149;-77
2021/12/13 04:51:41;;;;;;;;;;;;;;;10.29;34.98;100156.25;4471282;32;34328;-79
2021/12/13 04:54:09;;;;;;;;;;;;;;;10.15;35.91;100152.63;4471684;32;34321;-74
2021/12/13 04:56:36;;;;;;;;;;;;;;;10.31;35.07;100152.50;4474694;32;33471;-77
2021/12/13 04:59:04;;;;;;;;;;;;;;;9.88;35.93;100160.66;4474131;32;34178;-74
2021/12/13 05:01:32;;;;;;;;;;;;;;;10.15;35.69;100157.12;4455856;32;34838;-75
2021/12/13 05:04:00;;;;;;;;;;;;;;;9.81;37.19;100162.00;4475313;32;34124;-76
2021/12/13 05:06:29;;;;;;;;;;;;;;;9.98;36.26;100160.91;4467811;32;33196;-75
2021/12/13 05:08:58;;;;;;;;;;;;;;;9.91;36.91;100167.62;4473625;32;34299;-74
2021/12/13 05:11:33;;;;;;;;;;;;;;;10.03;36.47;100175.69;4473221;32;33655;-75
2021/12/13 05:14:03;;;;;;;;;;;;;;;10.34;35.75;100173.72;4457941;32;34287;-74
2021/12/13 05:16:53;;;;;;;;;;;;;;;10.46;35.38;100178.25;4467171;32;33579;-76
2021/12/13 05:19:29;;;;;;;;;;;;;;;10.49;35.51;100182.50;4468503;32;32505;-73
2021/12/13 05:21:56;;;;;;;;;;;;;;;10.18;36.05;100181.00;4458243;32;32994;-78
2021/12/13 05:24:26;;;;;;;;;;;;;;;10.68;34.73;100179.44;4475089;32;35788;-76
2021/12/13 05:26:55;;;;;;;;;;;;;;;10.26;35.97;100189.41;4455049;32;33736;-75
2021/12/13 05:29:24;;;;;;;;;;;;;;;10.43;35.44;100185.59;4472172;32;34354;-74
2021/12/13 05:31:53;;;;;;;;;;;;;;;10.53;35.24;100199.22;4475210;32;33837;-74
2021/12/13 05:34:20;;;;;;;;;;;;;;;10.64;34.97;100189.50;4471303;32;34558;-77
2021/12/13 05:36:56;;;;;;;;;;;;;;;10.82;34.31;100194.56;4473151;32;32860;-74
2021/12/13 05:39:24;;;;;;;;;;;;;;;10.87;34.39;100197.78;4459145;32;34265;-74
2021/12/13 05:41:53;;;;;;;;;;;;;;;10.64;34.67;100197.53;4473777;32;35572;-78
2021/12/13 05:44:28;;;;;;;;;;;;;;;10.75;34.64;100204.81;4468640;32;34435;-76
2021/12/13 05:46:56;;;;;;;;;;;;;;;10.72;34.95;100191.66;4472443;32;33370;-74
2021/12/13 05:49:27;;;;;;;;;;;;;;;10.83;34.98;100191.78;4458523;32;34668;-74
2021/12/13 05:51:56;;;;;;;;;;;;;;;10.72;35.37;100200.56;4467725;32;34364;-76
2021/12/13 05:54:33;;;;;;;;;;;;;;;10.64;36.14;100200.22;4474529;32;34324;-76
2021/12/13 05:57:12;;;;;;;;;;;;;;;10.55;35.97;100208.00;4475401;32;33269;-74
2021/12/13 05:59:43;;;;;;;;;;;;;;;10.91;35.07;100204.62;4474493;32;34093;-78
2021/12/13 06:02:16;;;;;;;;;;;;;;;10.88;35.25;100197.69;4454527;32;34397;-76
2021/12/13 06:05:16;;;;;;;;;;;;;;;11.05;34.77;100207.22;4466939;32;34195;-77
2021/12/13 06:07:51;;;;;;;;;;;;;;;11.16;34.73;100211.84;4440666;32;31909;-76
2021/12/13 06:10:21;;;;;;;;;;;;;;;11.22;34.75;100203.37;4478432;32;35180;-78
2021/12/13 06:12:49;;;;;;;;;;;;;;;11.59;33.65;100217.72;4477636;32;34298;-77
2021/12/13 06:15:16;;;;;;;;;;;;;;;11.65;33.63;100219.06;4478805;32;34342;-77
2021/12/13 06:17:45;;;;;;;;;;;;;;;11.66;33.72;100212.75;4477899;32;33727;-75
2021/12/13 06:20:13;;;;;;;;;;;;;;;11.47;34.42;100223.09;4460987;32;34304;-75
2021/12/13 06:22:41;;;;;;;;;;;;;;;11.09;34.96;100223.94;4458334;32;35309;-75
2021/12/13 06:25:10;;;;;;;;;;;;;;;11.52;34.40;100223.59;4462381;32;35490;-78
2021/12/13 06:27:43;;;;;;;;;;;;;;;12.02;33.09;100227.19;4466907;32;33600;-74
2021/12/13 06:30:16;;;;;;;;;;;;;;;11.64;35.11;100231.62;4477895;32;33884;-75
2021/12/13 06:32:59;;;;;;;;;;;;;;;12.03;33.51;100224.38;4478654;32;34077;-75
2021/12/13 06:35:26;;;;;;;;;;;;;;;12.00;33.81;100226.44;4470353;32;32851;-77
2021/12/13 06:37:54;;;;;;;;;;;;;;;12.03;33.22;100235.09;4470222;32;32575;-74
2021/12/13 06:40:27;;;;;;;;;;;;;;;12.27;33.76;100236.97;4464686;32;35193;-75
2021/12/13 06:42:56;;;;;;;;;;;;;;;12.49;33.60;100241.63;4456481;32;35109;-76
2021/12/13 06:45:25;;;;;;;;;;;;;;;12.43;32.94;100245.59;4478032;32;34519;-73
2021/12/13 06:47:53;;;;;;;;;;;;;;;12.30;32.76;100240.28;4475325;32;34128;-74
2021/12/13 06:50:22;;;;;;;;;;;;;;;12.42;32.66;100249.25;4464675;32;35067;-71
2021/12/13 06:52:49;;;;;;;;;;;;;;;12.22;33.33;100242.66;4472207;32;34292;-71
2021/12/13 06:55:17;;;;;;;;;;;;;;;12.89;32.07;100236.75;4475110;32;34757;-71
2021/12/13 06:57:47;;;;;;;;;;;;;;;13.26;31.46;100239.31;4470534;32;32355;-74
2021/12/13 07:00:18;;;;;;;;;;;;;;;13.68;31.29;100239.59;4469635;32;34782;-76
2021/12/13 07:02:53;;;;;;;;;;;;;;;13.84;30.73;100231.16;4457513;32;35155;-74
2021/12/13 07:05:28;;;;;;;;;;;;;;;14.16;29.98;100242.84;4476028;32;35448;-72
2021/12/13 07:08:02;;;;;;;;;;;;;;;14.68;29.50;100241.25;4471293;32;32265;-71
2021/12/13 07:10:33;;;;;;;;;;;;;;;14.80;29.08;100238.47;4475032;32;34422;-70
2021/12/13 07:13:02;;;;;;;;;;;;;;;14.88;28.63;100244.09;4472526;32;34203;-68
2021/12/13 07:15:35;;;;;;;;;;;;;;;15.44;28.00;100246.47;4467924;32;34329;-70
2021/12/13 07:18:04;;;;;;;;;;;;;;;15.27;28.54;100242.50;4471712;32;33581;-70
2021/12/13 07:20:52;;;;;;;;;;;;;;;15.29;28.51;100247.78;4475499;32;34340;-68
2021/12/13 07:23:19;;;;;;;;;;;;;;;16.04;27.47;100252.81;4472440;32;34563;-70
2021/12/13 07:25:47;;;;;;;;;;;;;;;15.91;27.20;100260.31;4471563;32;34335;-71
2021/12/13 07:28:28;;;;;;;;;;;;;;;15.62;28.11;100252.06;4472925;32;34627;-73
2021/12/13 07:30:56;;;;;;;;;;;;;;;16.07;27.22;100252.56;4471242;32;34411;-72
2021/12/13 07:33:34;;;;;;;;;;;;;;;16.37;27.12;100245.41;4455667;32;32937;-71
2021/12/13 07:36:12;;;;;;;;;;;;;;;16.74;26.90;100252.81;4481307;32;34413;-72
2021/12/13 07:38:51;;;;;;;;;;;;;;;17.10;26.04;100247.69;4474552;32;34246;-73
2021/12/13 07:41:20;;;;;;;;;;;;;;;17.57;25.39;100248.59;4475926;32;33973;-71
2021/12/13 07:43:47;;;;;;;;;;;;;;;15.88;27.70;100257.87;4478254;32;35620;-72
2021/12/13 07:46:17;;;;;;;;;;;;;;;16.93;26.12;100254.69;4477089;32;34451;-73
2021/12/13 07:48:45;;;;;;;;;;;;;;;16.22;27.76;100257.59;4467376;32;33587;-72
2021/12/13 07:51:17;;;;;;;;;;;;;;;16.12;27.35;100262.97;4474256;32;36257;-72
2021/12/13 07:53:56;;;;;;;;;;;;;;;16.45;26.97;100271.69;4471465;32;35004;-73
2021/12/13 07:56:33;;;;;;;;;;;;;;;17.48;25.78;100264.84;4474409;32;34159;-72
2021/12/13 07:59:05;;;;;;;;;;;;;;;17.08;26.68;100271.31;4469969;32;33114;-73
2021/12/13 08:01:34;;;;;;;;;;;;;;;19.35;23.51;100276.97;4471903;32;33390;-73
2021/12/13 08:04:08;;;;;;;;;;;;;;;19.64;22.73;100273.12;4473364;32;34324;-73
2021/12/13 08:06:39;;;;;;;;;;;;;;;19.06;23.44;100274.56;4469779;32;34386;-73
2021/12/13 08:09:10;;;;;;;;;;;;;;;18.27;24.90;100277.97;4470722;32;34253;-72
2021/12/13 08:11:40;;;;;;;;;;;;;;;17.73;24.85;100271.47;4472632;32;33143;-71
2021/12/13 08:14:09;;;;;;;;;;;;;;;17.40;25.87;100269.16;4470192;32;34533;-73
2021/12/13 08:16:42;;;;;;;;;;;;;;;17.05;26.43;100275.19;4474745;32;34493;-73
2021/12/13 08:19:20;;;;;;;;;;;;;;;18.35;24.88;100275.34;4469965;32;32283;-71
2021/12/13 08:21:57;;;;;;;;;;;;;;;17.51;25.73;100289.78;4468788;32;33147;-70
2021/12/13 08:24:37;;;;;;;;;;;;;;;17.48;26.11;100284.66;4471296;32;32973;-71
2021/12/13 08:27:16;;;;;;;;;;;;;;;17.17;26.21;100286.69;4458875;32;35467;-73
2021/12/13 08:29:44;;;;;;;;;;;;;;;17.88;25.70;100288.97;4467258;32;33823;-71
2021/12/13 08:32:13;;;;;;;;;;;;;;;17.49;26.02;100285.50;4467688;32;33188;-73
2021/12/13 08:34:46;;;;;;;;;;;;;;;17.14;26.75;100303.19;4468814;32;35374;-72
2021/12/13 08:37:19;;;;;;;;;;;;;;;16.95;27.17;100296.81;4478757;32;33040;-74
2021/12/13 08:39:50;;;;;;;;;;;;;;;18.09;25.24;100294.16;4470864;32;32315;-72
2021/12/13 08:42:19;;;;;;;;;;;;;;;17.90;25.89;100295.09;4474410;32;34858;-75
2021/12/13 08:45:16;;;;;;;;;;;;;;;17.26;26.78;100293.94;4471862;32;33529;-73
2021/12/13 08:47:46;;;;;;;;;;;;;;;16.59;27.66;100298.31;4472658;32;34169;-72
2021/12/13 08:50:33;;;;;;;;;;;;;;;16.65;27.26;100315.81;4468101;32;33402;-72
2021/12/13 08:53:04;;;;;;;;;;;;;;;15.98;28.29;100304.66;4470017;32;32826;-72
2021/12/13 08:55:33;;;;;;;;;;;;;;;15.57;29.08;100311.84;4470450;32;36049;-73
2021/12/13 08:58:04;;;;;;;;;;;;;;;17.11;27.28;100303.50;4475613;32;35377;-70
2021/12/13 09:00:32;;;;;;;;;;;;;;;16.19;28.07;100311.87;4469364;32;32642;-71
2021/12/13 09:03:10;;;;;;;;;;;;;;;17.01;27.50;100300.78;4468211;32;33949;-71
2021/12/13 09:05:39;;;;;;;;;;;;;;;19.36;24.05;100300.41;4470901;32;34452;-72
2021/12/13 09:08:11;;;;;;;;;;;;;;;19.63;23.34;100298.56;4473077;32;34229;-73
2021/12/13 09:10:43;;;;;;;;;;;;;;;20.81;22.03;100302.34;4469304;32;33688;-73
2021/12/13 09:13:11;;;;;;;;;;;;;;;19.39;24.03;100301.94;4459973;32;35247;-71
2021/12/13 09:15:39;;;;;;;;;;;;;;;17.87;25.48;100298.94;4470828;32;33977;-72
2021/12/13 09:18:07;;;;;;;;;;;;;;;18.07;25.31;100312.41;4465961;32;35420;-71
2021/12/13 09:20:37;;;;;;;;;;;;;;;18.28;24.81;100302.19;4477229;32;33612;-71
2021/12/13 09:23:19;;;;;;;;;;;;;;;18.86;24.26;100295.56;4469037;32;35062;-72
2021/12/13 09:25:54;;;;;;;;;;;;;;;19.01;23.91;100304.87;4471254;32;34391;-71
2021/12/13 09:28:21;;;;;;;;;;;;;;;19.47;23.67;100302.03;4473275;32;33442;-72
2021/12/13 09:30:49;;;;;;;;;;;;;;;19.96;22.79;100296.91;4470955;32;34639;-71
2021/12/13 09:33:20;;;;;;;;;;;;;;;19.22;23.58;100301.81;4467686;32;34208;-70
2021/12/13 09:35:49;;;;;;;;;;;;;;;17.02;25.84;100302.50;4473419;32;34868;-71
2021/12/13 09:38:16;;;;;;;;;;;;;;;17.74;25.44;100297.53;4476775;32;34935;-70
2021/12/13 09:40:45;;;;;;;;;;;;;;;17.67;25.97;100292.72;4475340;32;34347;-72
2021/12/13 09:43:13;;;;;;;;;;;;;;;18.06;26.07;100297.16;4473399;32;33913;-72
2021/12/13 09:45:43;;;;;;;;;;;;;;;19.47;23.45;100294.72;4469757;32;34409;-69
2021/12/13 09:48:18;;;;;;;;;;;;;;;19.82;23.44;100282.06;4471159;32;35159;-75
2021/12/13 09:50:47;;;;;;;;;;;;;;;20.17;23.14;100288.37;4478584;32;33732;-75
2021/12/13 09:53:15;;;;;;;;;;;;;;;20.07;22.74;100285.78;4456095;32;34014;-73
2021/12/13 09:55:45;;;;;;;;;;;;;;;20.13;22.65;100285.13;4465923;32;33127;-72
2021/12/13 09:58:25;;;;;;;;;;;;;;;19.89;23.27;100283.12;4470389;32;34119;-70
2021/12/13 10:00:52;;;;;;;;;;;;;;;19.92;23.07;100280.09;4473537;32;33361;-69
2021/12/13 10:03:28;;;;;;;;;;;;;;;19.55;23.20;100274.94;4472307;32;34195;-71
2021/12/13 10:05:57;;;;;;;;;;;;;;;18.81;24.67;100274.34;4470614;32;33532;-71
2021/12/13 10:08:30;;;;;;;;;;;;;;;18.66;24.71;100280.44;4466076;32;34409;-71
2021/12/13 10:10:59;;;;;;;;;;;;;;;18.38;25.06;100269.62;4472634;32;34603;-68
2021/12/13 10:13:29;;;;;;;;;;;;;;;18.61;24.44;100270.87;4466268;32;35306;-69
2021/12/13 10:15:58;;;;;;;;;;;;;;;18.56;25.36;100275.06;4464257;32;34407;-73
2021/12/13 10:18:26;;;;;;;;;;;;;;;18.81;24.98;100268.94;4472707;32;35813;-76
2021/12/13 10:20:56;;;;;;;;;;;;;;;19.77;23.22;100263.56;4469625;32;33549;-74
2021/12/13 10:23:29;;;;;;;;;;;;;;;19.63;24.31;100268.69;4476829;32;34988;-77
2021/12/13 10:26:18;;;;;;;;;;;;;;;20.04;23.63;100275.22;4470821;32;35655;-74
2021/12/13 10:28:53;;;;;;;;;;;;;;;19.88;23.05;100273.28;4470087;32;34151;-72
2021/12/13 10:31:23;;;;;;;;;;;;;;;19.74;23.25;100272.03;4465331;32;34570;-74
2021/12/13 10:33:51;;;;;;;;;;;;;;;19.03;24.15;100269.44;4466656;32;34274;-71
2021/12/13 10:36:18;;;;;;;;;;;;;;;18.70;24.52;100269.09;4456512;32;35069;-74
2021/12/13 10:38:50;;;;;;;;;;;;;;;18.33;24.91;100270.09;4473304;32;34539;-75
2021/12/13 10:41:29;;;;;;;;;;;;;;;17.54;26.62;100266.97;4451378;32;34499;-75
2021/12/13 10:43:58;;;;;;;;;;;;;;;16.86;27.71;100267.94;4471979;32;35042;-72
2021/12/13 10:46:28;;;;;;;;;;;;;;;16.92;26.96;100264.66;4469838;32;33933;-73
2021/12/13 10:48:57;;;;;;;;;;;;;;;17.55;26.07;100260.56;4472879;32;34246;-72
2021/12/13 10:51:28;;;;;;;;;;;;;;;16.53;27.89;100267.31;4471064;32;33370;-72
2021/12/13 10:53:55;;;;;;;;;;;;;;;16.47;26.91;100256.22;4475528;32;35606;-74
2021/12/13 10:56:28;;;;;;;;;;;;;;;17.20;26.35;100252.09;4477188;32;34210;-75
2021/12/13 10:58:56;;;;;;;;;;;;;;;17.53;26.10;100249.00;4484019;32;35159;-75
2021/12/13 11:01:25;;;;;;;;;;;;;;;17.22;25.42;100251.97;4473422;32;33408;-75
2021/12/13 11:03:54;;;;;;;;;;;;;;;17.07;26.72;100253.41;4474234;32;32900;-74
2021/12/13 11:06:22;;;;;;;;;;;;;;;18.44;24.63;100252.75;4473337;32;35283;-74
2021/12/13 11:08:50;;;;;;;;;;;;;;;18.87;24.19;100250.31;4478073;32;33271;-74
2021/12/13 11:11:29;;;;;;;;;;;;;;;17.89;24.76;100252.78;4475721;32;33148;-74
2021/12/13 11:13:57;;;;;;;;;;;;;;;18.74;24.07;100237.16;4450675;32;34061;-74
2021/12/13 11:16:29;;;;;;;;;;;;;;;18.87;24.07;100245.72;4473423;32;33934;-73
2021/12/13 11:18:57;;;;;;;;;;;;;;;17.98;25.49;100245.59;4469656;32;34119;-74
2021/12/13 11:21:29;;;;;;;;;;;;;;;17.95;26.30;100259.47;4470632;32;31498;-74
2021/12/13 11:24:03;;;;;;;;;;;;;;;18.29;25.39;100255.13;4476074;32;35185;-75
2021/12/13 11:26:31;;;;;;;;;;;;;;;18.03;25.48;100264.97;4468595;32;35313;-75
2021/12/13 11:28:59;;;;;;;;;;;;;;;17.74;26.27;100254.22;4459066;32;34541;-72
2021/12/13 11:31:30;;;;;;;;;;;;;;;17.20;26.93;100259.34;4473643;32;34506;-73
2021/12/13 11:34:01;;;;;;;;;;;;;;;16.04;28.86;100266.31;4471667;32;34568;-70
2021/12/13 11:36:46;;;;;;;;;;;;;;;14.96;31.41;100264.97;4466561;32;32878;-73
2021/12/13 11:39:14;;;;;;;;;;;;;;;15.50;30.04;100266.63;4472701;32;34634;-73
2021/12/13 11:41:57;;;;;;;;;;;;;;;15.16;30.44;100269.56;4473752;32;33161;-76
2021/12/13 11:44:24;;;;;;;;;;;;;;;14.78;31.89;100253.94;4469238;32;33216;-70
2021/12/13 11:47:11;;;;;;;;;;;;;;;15.02;30.89;100253.69;4473918;32;34324;-71
2021/12/13 11:49:41;;;;;;;;;;;;;;;14.84;31.73;100254.28;4476660;32;34698;-70
2021/12/13 11:52:11;;;;;;;;;;;;;;;14.17;32.78;100258.00;4472182;32;33884;-70
2021/12/13 11:54:43;;;;;;;;;;;;;;;14.29;32.81;100252.62;4478388;32;34935;-70
2021/12/13 11:57:49;;;;;;;;;;;;;;;14.09;33.03;100247.03;4472493;32;34100;-68
2021/12/13 12:00:35;;;;;;;;;;;;;;;13.38;35.00;100249.09;4411038;32;35681;-69
2021/12/13 12:03:21;;;;;;;;;;;;;;;13.06;34.95;100248.88;4408116;32;34579;-69
2021/12/13 12:05:51;;;;;;;;;;;;;;;12.29;36.07;100249.28;4455375;32;33970;-69
2021/12/13 12:08:37;;;;;;;;;;;;;;;12.19;36.56;100242.88;4470683;32;33464;-74
2021/12/13 12:11:17;;;;;;;;;;;;;;;12.49;36.57;100239.78;4455455;32;34120;-78
2021/12/13 12:13:51;;;;;;;;;;;;;;;12.09;38.23;100237.34;4467562;32;33649;-73
2021/12/13 12:16:20;;;;;;;;;;;;;;;12.35;36.74;100245.31;4473997;32;34134;-71
2021/12/13 12:18:50;;;;;;;;;;;;;;;12.23;36.07;100247.09;4476622;32;33960;-72
2021/12/13 12:21:26;;;;;;;;;;;;;;;11.03;38.40;100256.50;4475074;32;34247;-74
2021/12/13 12:23:54;;;;;;;;;;;;;;;11.89;36.87;100256.72;4473714;32;33642;-74
2021/12/13 12:26:22;;;;;;;;;;;;;;;12.08;36.78;100248.22;4458654;32;34157;-74
2021/12/13 12:28:50;;;;;;;;;;;;;;;11.81;36.75;100249.22;4471567;32;35504;-71
2021/12/13 12:31:17;;;;;;;;;;;;;;;12.58;35.32;100247.16;4473367;32;33825;-71
2021/12/13 12:33:45;;;;;;;;;;;;;;;12.20;37.57;100250.00;4473716;32;33729;-71
2021/12/13 12:36:20;;;;;;;;;;;;;;;12.64;36.06;100242.28;4476331;32;34010;-72
2021/12/13 12:38:56;;;;;;;;;;;;;;;13.17;35.02;100246.22;4477533;32;34310;-73
2021/12/13 12:41:36;;;;;;;;;;;;;;;13.30;35.32;100248.00;4472170;32;34532;-70
2021/12/13 12:44:03;;;;;;;;;;;;;;;12.96;35.18;100246.03;4477553;32;33363;-69
2021/12/13 12:46:31;;;;;;;;;;;;;;;12.90;34.96;100251.03;4468516;32;33727;-72
2021/12/13 12:48:59;;;;;;;;;;;;;;;12.69;36.02;100248.16;4461690;32;32715;-72
2021/12/13 12:51:31;;;;;;;;;;;;;;;13.08;35.74;100246.94;4467617;32;35313;-73
2021/12/13 12:54:00;;;;;;;;;;;;;;;12.76;35.06;100246.72;4474765;32;33695;-72
2021/12/13 12:56:30;;;;;;;;;;;;;;;13.17;34.63;100242.69;4473263;32;35041;-72
2021/12/13 12:59:02;;;;;;;;;;;;;;;12.93;35.30;100240.91;4468658;32;34447;-73
2021/12/13 13:01:30;;;;;;;;;;;;;;;13.56;34.41;100241.41;4473345;32;34488;-72
2021/12/13 13:04:12;;;;;;;;;;;;;;;13.63;33.63;100239.94;4475012;32;34175;-71
2021/12/13 13:06:51;;;;;;;;;;;;;;;13.15;35.05;100241.94;4479596;32;32625;-72
2021/12/13 13:09:19;;;;;;;;;;;;;;;13.72;33.98;100254.50;4475852;32;34397;-73
2021/12/13 13:11:48;;;;;;;;;;;;;;;13.90;33.91;100247.66;4480118;32;34216;-72